createdAt,value
2019-01-18T00:02:25.108Z,5.90
2019-01-18T00:04:54.797Z,5.90
2019-01-18T00:07:24.469Z,5.90
2019-01-18T00:09:54.227Z,5.90
2019-01-18T00:12:23.913Z,5.90
2019-01-18T00:14:53.581Z,5.90
2019-01-18T00:17:23.237Z,5.90
2019-01-18T00:19:52.941Z,5.90
2019-01-18T00:22:25.544Z,5.90
2019-01-18T00:24:55.285Z,5.90
2019-01-18T00:27:26.081Z,5.90
2019-01-18T00:29:55.802Z,5.90
2019-01-18T00:32:25.334Z,5.90
2019-01-18T00:34:55.016Z,6.00
2019-01-18T00:37:24.750Z,6.00
2019-01-18T00:39:54.611Z,6.00
2019-01-18T00:42:25.838Z,6.00
2019-01-18T00:44:55.496Z,6.00
2019-01-18T00:47:25.165Z,6.00
2019-01-18T00:49:54.864Z,6.00
2019-01-18T00:52:24.606Z,6.00
2019-01-18T00:54:54.265Z,6.00
2019-01-18T00:57:23.959Z,6.00
2019-01-18T00:59:55.253Z,6.00
2019-01-18T01:02:24.980Z,6.00
2019-01-18T01:04:54.682Z,6.00
2019-01-18T01:07:24.340Z,6.00
2019-01-18T01:09:54.012Z,6.10
2019-01-18T01:12:23.721Z,6.10
2019-01-18T01:14:53.459Z,6.10
2019-01-18T01:17:23.132Z,6.10
2019-01-18T01:19:52.905Z,6.10
2019-01-18T01:22:22.815Z,6.10
2019-01-18T01:24:52.487Z,6.10
2019-01-18T01:27:23.815Z,6.10
2019-01-18T01:29:53.491Z,6.10
2019-01-18T01:32:23.443Z,6.10
2019-01-18T01:34:53.198Z,6.10
2019-01-18T01:37:23.237Z,6.10
2019-01-18T01:39:52.906Z,6.10
2019-01-18T01:42:22.588Z,6.20
2019-01-18T01:44:53.564Z,6.20
2019-01-18T01:47:23.594Z,6.20
2019-01-18T01:49:53.293Z,6.20
2019-01-18T01:52:22.954Z,6.20
2019-01-18T01:54:52.696Z,6.20
2019-01-18T01:57:22.389Z,6.20
2019-01-18T01:59:52.125Z,6.20
2019-01-18T02:02:21.802Z,6.20
2019-01-18T02:04:51.486Z,6.20
2019-01-18T02:07:21.152Z,6.20
2019-01-18T02:09:50.900Z,6.30
2019-01-18T02:12:20.609Z,6.30
2019-01-18T02:14:50.320Z,6.30
2019-01-18T02:17:19.991Z,6.30
2019-01-18T02:19:49.740Z,6.30
2019-01-18T02:22:19.394Z,6.30
2019-01-18T02:24:50.641Z,6.20
2019-01-18T02:27:20.370Z,6.20
2019-01-18T02:29:56.411Z,6.20
2019-01-18T02:32:21.455Z,6.20
2019-01-18T02:34:51.376Z,6.20
2019-01-18T02:37:21.112Z,6.10
2019-01-18T02:39:50.793Z,6.10
2019-01-18T02:42:20.477Z,6.10
2019-01-18T02:44:50.163Z,6.10
2019-01-18T02:47:19.831Z,6.10
2019-01-18T02:49:49.539Z,6.10
2019-01-18T02:52:19.295Z,6.10
2019-01-18T02:54:48.973Z,6.10
2019-01-18T02:57:18.676Z,6.10
2019-01-18T02:59:48.340Z,6.10
2019-01-18T03:02:18.015Z,6.10
2019-01-18T03:04:47.699Z,6.10
2019-01-18T03:07:17.355Z,6.10
2019-01-18T03:09:47.341Z,6.10
2019-01-18T03:12:17.033Z,6.10
2019-01-18T03:14:46.770Z,6.10
2019-01-18T03:17:16.447Z,6.10
2019-01-18T03:19:46.144Z,6.10
2019-01-18T03:22:15.807Z,6.10
2019-01-18T03:24:46.413Z,6.10
2019-01-18T03:27:16.805Z,6.10
2019-01-18T03:29:46.409Z,6.10
2019-01-18T03:32:16.082Z,6.10
2019-01-18T03:34:45.779Z,6.10
2019-01-18T03:37:15.441Z,6.10
2019-01-18T03:39:45.178Z,6.00
2019-01-18T03:42:14.969Z,6.00
2019-01-18T03:44:44.710Z,6.00
2019-01-18T03:47:14.389Z,6.00
2019-01-18T03:49:44.098Z,6.00
2019-01-18T03:52:13.877Z,6.00
2019-01-18T03:54:44.005Z,6.00
2019-01-18T03:57:13.699Z,6.00
2019-01-18T03:59:43.379Z,6.00
2019-01-18T04:02:13.076Z,5.90
2019-01-18T04:04:42.753Z,5.90
2019-01-18T04:07:12.411Z,6.00
2019-01-18T04:09:42.067Z,6.00
2019-01-18T04:12:11.922Z,5.90
2019-01-18T04:14:41.599Z,5.90
2019-01-18T04:17:11.257Z,6.00
2019-01-18T04:19:40.945Z,6.00
2019-01-18T04:22:10.683Z,6.00
2019-01-18T04:24:40.353Z,6.00
2019-01-18T04:27:11.060Z,6.00
2019-01-18T04:29:40.722Z,6.00
2019-01-18T04:32:10.406Z,6.00
2019-01-18T04:34:40.173Z,6.00
2019-01-18T04:37:09.836Z,6.00
2019-01-18T04:39:39.517Z,6.00
2019-01-18T04:42:09.216Z,6.00
2019-01-18T04:44:38.915Z,6.00
2019-01-18T04:47:08.700Z,6.10
2019-01-18T04:49:38.397Z,6.10
2019-01-18T04:52:08.077Z,6.00
2019-01-18T04:54:37.739Z,6.10
2019-01-18T04:57:07.434Z,6.00
2019-01-18T04:59:37.127Z,6.00
2019-01-18T05:02:06.780Z,6.00
2019-01-18T05:04:36.733Z,6.00
2019-01-18T05:07:06.464Z,6.00
2019-01-18T05:09:36.582Z,6.00
2019-01-18T05:12:06.284Z,6.00
2019-01-18T05:14:36.010Z,5.90
2019-01-18T05:17:06.930Z,5.90
2019-01-18T05:19:36.633Z,5.90
2019-01-18T05:22:06.493Z,5.90
2019-01-18T05:24:36.187Z,5.90
2019-01-18T05:27:05.882Z,5.90
2019-01-18T05:29:35.614Z,5.90
2019-01-18T05:32:05.282Z,5.90
2019-01-18T05:34:35.014Z,5.80
2019-01-18T05:37:04.727Z,5.80
2019-01-18T05:39:34.584Z,5.80
2019-01-18T05:42:04.666Z,5.80
2019-01-18T05:44:34.334Z,5.80
2019-01-18T05:47:04.012Z,5.80
2019-01-18T05:49:33.744Z,5.80
2019-01-18T05:52:03.462Z,5.80
2019-01-18T05:54:33.163Z,5.90
2019-01-18T05:57:02.841Z,5.90
2019-01-18T05:59:32.500Z,5.90
2019-01-18T06:02:02.253Z,5.90
2019-01-18T06:04:31.938Z,5.90
2019-01-18T06:07:01.602Z,5.90
2019-01-18T06:09:31.780Z,5.90
2019-01-18T06:12:01.466Z,5.90
2019-01-18T06:14:31.121Z,5.90
2019-01-18T06:17:00.798Z,5.90
2019-01-18T06:19:30.565Z,5.90
2019-01-18T06:22:00.240Z,5.90
2019-01-18T06:24:29.916Z,5.90
2019-01-18T06:26:59.620Z,5.90
2019-01-18T06:29:29.296Z,5.90
2019-01-18T06:31:58.974Z,5.90
2019-01-18T06:34:28.776Z,5.90
2019-01-18T06:36:58.457Z,5.90
2019-01-18T06:39:28.110Z,5.90
2019-01-18T06:41:58.223Z,5.80
2019-01-18T06:44:27.953Z,5.80
2019-01-18T06:46:57.644Z,5.70
2019-01-18T06:49:27.412Z,5.80
2019-01-18T06:51:57.070Z,5.80
2019-01-18T06:54:26.739Z,5.90
2019-01-18T06:56:56.435Z,5.90
2019-01-18T06:59:26.095Z,5.90
2019-01-18T07:01:55.790Z,5.90
2019-01-18T07:04:25.574Z,6.00
2019-01-18T07:06:55.279Z,6.00
2019-01-18T07:09:24.940Z,6.00
2019-01-18T07:11:54.743Z,6.00
2019-01-18T07:14:25.876Z,6.10
2019-01-18T07:16:57.124Z,6.10
2019-01-18T07:19:26.808Z,6.10
2019-01-18T07:21:57.742Z,6.10
2019-01-18T07:24:27.652Z,6.10
2019-01-18T07:26:57.347Z,6.10
2019-01-18T07:29:27.006Z,6.10
2019-01-18T07:31:56.691Z,6.20
2019-01-18T07:34:26.413Z,6.20
2019-01-18T07:36:56.085Z,6.20
2019-01-18T07:39:25.759Z,6.30
2019-01-18T07:41:55.467Z,6.30
2019-01-18T07:44:25.120Z,6.30
2019-01-18T07:46:54.854Z,6.30
2019-01-18T07:49:24.554Z,6.40
2019-01-18T07:51:54.328Z,6.40
2019-01-18T07:54:24.110Z,6.40
2019-01-18T07:56:53.820Z,6.40
2019-01-18T07:59:23.505Z,6.40
2019-01-18T08:01:53.164Z,6.40
2019-01-18T08:04:22.846Z,6.50
2019-01-18T08:06:52.544Z,6.50
2019-01-18T08:09:22.215Z,6.50
2019-01-18T08:11:51.914Z,6.50
2019-01-18T08:14:21.573Z,6.50
2019-01-18T08:16:51.235Z,6.50
2019-01-18T08:19:20.944Z,6.50
2019-01-18T08:21:50.632Z,6.60
2019-01-18T08:24:20.300Z,6.60
2019-01-18T08:26:50.042Z,6.60
2019-01-18T08:29:19.769Z,6.60
2019-01-18T08:31:49.574Z,6.60
2019-01-18T08:34:19.323Z,6.60
2019-01-18T08:36:49.057Z,6.60
2019-01-18T08:39:18.719Z,6.60
2019-01-18T08:41:49.385Z,6.60
2019-01-18T08:44:19.120Z,6.60
2019-01-18T08:46:48.792Z,6.70
2019-01-18T08:49:18.545Z,6.70
2019-01-18T08:51:48.215Z,6.70
2019-01-18T08:54:17.886Z,6.70
2019-01-18T08:56:47.595Z,6.70
2019-01-18T08:59:17.329Z,6.80
2019-01-18T09:01:46.988Z,6.80
2019-01-18T09:04:16.758Z,6.80
2019-01-18T09:06:46.447Z,6.90
2019-01-18T09:09:17.332Z,6.90
2019-01-18T09:11:47.091Z,6.90
2019-01-18T09:14:19.512Z,7.00
2019-01-18T09:16:48.229Z,7.00
2019-01-18T09:19:19.127Z,7.00
2019-01-18T09:21:48.874Z,7.10
2019-01-18T09:24:18.637Z,7.10
2019-01-18T09:26:49.275Z,7.20
2019-01-18T09:29:19.841Z,7.20
2019-01-18T09:31:49.571Z,7.30
2019-01-18T09:34:19.271Z,7.30
2019-01-18T09:36:48.939Z,7.40
2019-01-18T09:39:18.908Z,7.40
2019-01-18T09:41:48.609Z,7.50
2019-01-18T09:44:18.258Z,7.50
2019-01-18T09:46:47.954Z,7.60
2019-01-18T09:49:17.648Z,7.60
2019-01-18T09:51:47.431Z,7.70
2019-01-18T09:54:17.169Z,7.70
2019-01-18T09:56:46.883Z,7.80
2019-01-18T09:59:16.540Z,7.80
2019-01-18T10:01:49.429Z,7.90
2019-01-18T10:04:17.623Z,7.90
2019-01-18T10:06:47.289Z,7.90
2019-01-18T10:09:17.194Z,8.00
2019-01-18T10:11:46.895Z,8.00
2019-01-18T10:14:16.572Z,8.10
2019-01-18T10:16:46.234Z,8.10
2019-01-18T10:19:15.936Z,8.20
2019-01-18T10:21:46.664Z,8.20
2019-01-18T10:24:16.594Z,8.30
2019-01-18T10:26:46.297Z,8.30
2019-01-18T10:29:16.031Z,8.40
2019-01-18T10:31:45.710Z,8.40
2019-01-18T10:34:15.405Z,8.40
2019-01-18T10:36:45.148Z,8.50
2019-01-18T10:39:14.832Z,8.50
2019-01-18T10:41:44.588Z,8.60
2019-01-18T10:44:14.377Z,8.60
2019-01-18T10:46:44.071Z,8.70
2019-01-18T10:49:13.755Z,8.80
2019-01-18T10:51:43.468Z,8.80
2019-01-18T10:54:13.155Z,8.90
2019-01-18T10:56:42.826Z,8.90
2019-01-18T10:59:12.504Z,9.00
2019-01-18T11:01:42.185Z,9.00
2019-01-18T11:04:11.876Z,9.10
2019-01-18T11:06:41.562Z,9.10
2019-01-18T11:09:11.219Z,9.10
2019-01-18T11:11:40.922Z,9.10
2019-01-18T11:14:10.691Z,9.10
2019-01-18T11:16:40.348Z,9.20
2019-01-18T11:19:10.040Z,9.20
2019-01-18T11:21:40.091Z,9.20
2019-01-18T11:24:09.779Z,9.30
2019-01-18T11:26:39.471Z,9.30
2019-01-18T11:29:09.145Z,9.30
2019-01-18T11:31:38.893Z,9.40
2019-01-18T11:34:08.758Z,9.40
2019-01-18T11:36:38.422Z,9.40
2019-01-18T11:39:09.399Z,9.50
2019-01-18T11:41:39.161Z,9.50
2019-01-18T11:44:09.003Z,9.50
2019-01-18T11:46:38.683Z,9.60
2019-01-18T11:49:08.384Z,9.60
2019-01-18T11:51:38.043Z,9.60
2019-01-18T11:54:07.780Z,9.70
2019-01-18T11:56:37.548Z,9.70
2019-01-18T11:59:07.275Z,9.70
2019-01-18T12:01:36.945Z,9.80
2019-01-18T12:04:06.626Z,9.80
2019-01-18T12:06:36.528Z,9.90
2019-01-18T12:09:08.250Z,9.90
2019-01-18T12:11:39.299Z,10.00
2019-01-18T12:14:08.982Z,10.00
2019-01-18T12:16:38.829Z,10.00
2019-01-18T12:19:08.527Z,10.10
2019-01-18T12:21:38.203Z,10.10
2019-01-18T12:24:07.901Z,10.20
2019-01-18T12:26:37.672Z,10.20
2019-01-18T12:29:07.485Z,10.30
2019-01-18T12:31:38.435Z,10.30
2019-01-18T12:34:08.138Z,10.30
2019-01-18T12:36:37.882Z,10.40
2019-01-18T12:39:11.090Z,10.40
2019-01-18T12:41:43.715Z,10.40
2019-01-18T12:44:13.407Z,10.50
2019-01-18T12:46:43.143Z,10.50
2019-01-18T12:49:12.837Z,10.50
2019-01-18T12:51:42.533Z,10.60
2019-01-18T12:54:12.198Z,10.70
2019-01-18T12:56:41.875Z,10.70
2019-01-18T12:59:11.537Z,10.80
2019-01-18T13:01:42.899Z,10.90
2019-01-18T13:04:12.589Z,10.90
2019-01-18T13:06:42.255Z,10.90
2019-01-18T13:09:12.304Z,11.00
2019-01-18T13:11:42.069Z,11.00
2019-01-18T13:14:13.331Z,11.00
2019-01-18T13:16:43.004Z,11.10
2019-01-18T13:19:12.774Z,11.10
2019-01-18T13:21:42.654Z,11.10
2019-01-18T13:24:12.316Z,11.10
2019-01-18T13:26:42.003Z,11.20
2019-01-18T13:29:11.682Z,11.20
2019-01-18T13:31:41.370Z,11.20
2019-01-18T13:34:11.447Z,11.20
2019-01-18T13:36:41.173Z,11.20
2019-01-18T13:39:10.865Z,11.30
2019-01-18T13:41:40.871Z,11.30
2019-01-18T13:44:10.530Z,11.30
2019-01-18T13:46:40.309Z,11.30
2019-01-18T13:49:10.002Z,11.40
2019-01-18T13:51:39.706Z,11.40
2019-01-18T13:54:09.549Z,11.40
2019-01-18T13:56:40.978Z,11.40
2019-01-18T13:59:10.666Z,11.50
2019-01-18T14:01:40.330Z,11.50
2019-01-18T14:04:10.043Z,11.30
2019-01-18T14:06:39.712Z,11.50
2019-01-18T14:09:28.699Z,11.50
2019-01-18T14:11:58.468Z,11.50
2019-01-18T14:14:28.207Z,11.50
2019-01-18T14:16:59.173Z,11.40
2019-01-18T14:19:29.044Z,11.40
2019-01-18T14:21:58.709Z,11.30
2019-01-18T14:24:29.700Z,11.30
2019-01-18T14:27:07.006Z,11.30
2019-01-18T14:29:36.780Z,11.30
2019-01-18T14:32:06.482Z,11.20
2019-01-18T14:34:36.434Z,11.20
2019-01-18T14:37:06.185Z,11.20
2019-01-18T14:39:35.873Z,11.10
2019-01-18T14:42:05.555Z,11.10
2019-01-18T14:44:35.661Z,11.10
2019-01-18T14:47:05.414Z,11.10
2019-01-18T14:49:35.962Z,11.00
2019-01-18T14:52:06.233Z,11.00
2019-01-18T14:54:37.265Z,11.00
2019-01-18T14:57:06.950Z,11.10
2019-01-18T14:59:36.649Z,11.10
2019-01-18T15:02:06.511Z,11.10
2019-01-18T15:04:36.394Z,11.10
2019-01-18T15:07:06.079Z,11.10
2019-01-18T15:09:35.804Z,10.90
2019-01-18T15:12:06.013Z,11.10
2019-01-18T15:14:39.233Z,11.00
2019-01-18T15:17:08.972Z,11.00
2019-01-18T15:19:38.678Z,11.00
2019-01-18T15:22:08.336Z,11.00
2019-01-18T15:24:38.089Z,11.00
2019-01-18T15:27:07.786Z,10.90
2019-01-18T15:29:37.517Z,10.90
2019-01-18T15:32:07.210Z,10.90
2019-01-18T15:34:37.121Z,10.80
2019-01-18T15:37:07.050Z,10.80
2019-01-18T15:39:37.948Z,10.80
2019-01-18T15:42:26.907Z,10.80
2019-01-18T15:44:56.577Z,10.80
2019-01-18T15:47:26.247Z,10.70
2019-01-18T15:49:56.017Z,10.70
2019-01-18T15:52:25.736Z,10.70
2019-01-18T15:54:55.414Z,10.60
2019-01-18T15:57:25.179Z,10.60
2019-01-18T15:59:54.860Z,10.50
2019-01-18T16:02:24.515Z,10.50
2019-01-18T16:04:54.213Z,10.50
2019-01-18T16:07:23.897Z,10.40
2019-01-18T16:09:53.620Z,10.40
2019-01-18T16:12:23.331Z,10.40
2019-01-18T16:14:52.994Z,10.30
2019-01-18T16:17:23.821Z,10.30
2019-01-18T16:19:53.597Z,10.30
2019-01-18T16:22:23.297Z,10.30
2019-01-18T16:24:52.997Z,10.20
2019-01-18T16:27:22.685Z,10.20
2019-01-18T16:29:52.459Z,10.20
2019-01-18T16:32:22.390Z,10.20
2019-01-18T16:34:52.097Z,10.20
2019-01-18T16:37:21.768Z,10.20
2019-01-18T16:39:51.437Z,10.20
2019-01-18T16:42:21.157Z,10.20
2019-01-18T16:44:50.822Z,10.10
2019-01-18T16:47:20.545Z,10.10
2019-01-18T16:49:50.293Z,10.00
2019-01-18T16:52:19.980Z,10.00
2019-01-18T16:54:49.713Z,10.00
2019-01-18T16:57:19.498Z,10.00
2019-01-18T16:59:49.155Z,9.90
2019-01-18T17:02:18.835Z,9.90
2019-01-18T17:04:48.533Z,9.90
2019-01-18T17:07:18.296Z,9.80
2019-01-18T17:09:48.041Z,9.80
2019-01-18T17:12:17.718Z,9.80
2019-01-18T17:14:47.376Z,9.70
2019-01-18T17:17:17.208Z,9.70
2019-01-18T17:19:46.862Z,9.70
2019-01-18T17:22:16.537Z,9.70
2019-01-18T17:24:46.340Z,9.70
2019-01-18T17:27:16.108Z,9.70
2019-01-18T17:29:45.843Z,9.70
2019-01-18T17:32:15.619Z,9.70
2019-01-18T17:34:45.714Z,9.70
2019-01-18T17:37:15.519Z,9.70
2019-01-18T17:39:46.763Z,9.70
2019-01-18T17:42:26.596Z,9.70
2019-01-18T17:45:21.385Z,9.60
2019-01-18T17:48:16.319Z,9.60
2019-01-18T17:51:14.388Z,9.60
2019-01-18T17:54:06.644Z,9.40
2019-01-18T17:56:52.808Z,9.60
2019-01-18T17:59:29.475Z,9.50
2019-01-18T18:02:42.770Z,9.60
2019-01-18T18:05:16.864Z,9.50
2019-01-18T18:08:06.082Z,9.50
2019-01-18T18:10:49.264Z,9.50
2019-01-18T18:13:52.397Z,9.50
2019-01-18T18:16:35.323Z,9.50
2019-01-18T18:19:33.396Z,9.50
2019-01-18T18:22:26.741Z,9.50
2019-01-18T18:25:36.528Z,9.50
2019-01-18T18:28:46.958Z,9.40
2019-01-18T18:34:27.183Z,9.40
2019-01-18T18:37:17.799Z,9.50
2019-01-18T18:40:36.905Z,9.50
2019-01-18T18:43:35.141Z,9.50
2019-01-18T18:46:45.376Z,9.40
2019-01-18T18:49:22.185Z,9.40
2019-01-18T18:52:06.692Z,9.40
2019-01-18T18:54:52.615Z,9.40
2019-01-18T18:58:03.042Z,9.50
2019-01-18T19:00:43.833Z,9.50
2019-01-18T19:03:57.569Z,9.50
2019-01-18T19:06:52.001Z,9.50
2019-01-18T19:09:41.776Z,9.50
2019-01-18T19:12:41.072Z,9.50
2019-01-18T19:15:40.133Z,9.40
2019-01-18T19:18:22.408Z,9.40
2019-01-18T19:21:17.155Z,9.40
2019-01-18T19:24:07.845Z,9.40
2019-01-18T19:27:20.901Z,9.40
2019-01-18T19:30:03.625Z,9.40
2019-01-18T19:33:12.883Z,9.40
2019-01-18T19:36:02.008Z,9.40
2019-01-18T19:38:57.094Z,9.40
2019-01-18T19:41:33.726Z,9.40
2019-01-18T19:44:43.151Z,9.40
2019-01-18T19:47:20.123Z,9.40
2019-01-18T19:50:19.015Z,9.40
2019-01-18T19:52:55.752Z,9.40
2019-01-18T19:55:59.366Z,9.40
2019-01-18T19:58:45.393Z,9.40
2019-01-18T20:01:25.280Z,9.40
2019-01-18T20:04:11.675Z,9.40
2019-01-18T20:06:59.200Z,9.40
2019-01-18T20:09:33.262Z,9.40
2019-01-18T20:12:19.029Z,9.40
2019-01-18T20:14:55.597Z,9.40
2019-01-18T20:17:53.818Z,9.40
2019-01-18T20:20:49.614Z,9.30
2019-01-18T20:23:51.612Z,9.30
2019-01-18T20:26:38.130Z,9.30
2019-01-18T20:29:29.526Z,9.20
2019-01-18T20:32:18.400Z,9.20
2019-01-18T20:35:04.101Z,9.20
2019-01-18T20:37:53.337Z,9.20
2019-01-18T20:40:42.583Z,9.20
2019-01-18T20:43:20.372Z,9.20
2019-01-18T20:46:00.449Z,9.20
2019-01-18T20:48:46.356Z,9.20
2019-01-18T20:51:56.939Z,9.20
2019-01-18T20:54:40.044Z,9.10
2019-01-18T20:57:23.371Z,9.00
2019-01-18T21:00:06.190Z,9.00
2019-01-18T21:02:46.741Z,8.70
2019-01-18T21:05:24.440Z,8.90
2019-01-18T21:08:16.807Z,8.90
2019-01-18T21:11:03.412Z,8.70
2019-01-18T21:14:08.288Z,8.80
2019-01-18T21:16:55.071Z,8.80
2019-01-18T21:20:00.241Z,8.70
2019-01-18T21:22:50.601Z,8.60
2019-01-18T21:25:43.146Z,8.60
2019-01-18T21:28:35.694Z,8.50
2019-01-18T21:31:11.013Z,8.50
2019-01-18T21:34:10.029Z,8.50
2019-01-18T21:37:19.563Z,8.50
2019-01-18T21:40:05.848Z,8.50
2019-01-18T21:43:15.115Z,8.50
2019-01-18T21:46:35.941Z,8.50
2019-01-18T21:49:21.933Z,8.40
2019-01-18T21:52:28.758Z,8.40
2019-01-18T21:55:40.114Z,8.40
2019-01-18T21:58:25.890Z,8.40
2019-01-18T22:01:26.896Z,8.40
2019-01-18T22:04:43.252Z,8.40
2019-01-18T22:07:22.840Z,8.40
2019-01-18T22:10:17.489Z,8.40
2019-01-18T22:13:41.330Z,8.50
2019-01-18T22:16:26.860Z,8.40
2019-01-18T22:19:38.815Z,8.40
2019-01-18T22:22:36.492Z,8.40
2019-01-18T22:25:22.215Z,8.30
2019-01-18T22:28:23.425Z,8.20
2019-01-18T22:31:06.279Z,8.20
2019-01-18T22:33:48.939Z,8.20
2019-01-18T22:37:02.146Z,8.20
2019-01-18T22:40:01.861Z,8.20
2019-01-18T22:42:47.749Z,8.10
2019-01-18T22:45:49.730Z,8.10
2019-01-18T22:48:41.652Z,8.10
2019-01-18T22:51:24.270Z,8.10
2019-01-18T22:54:06.864Z,8.10
2019-01-18T22:56:52.922Z,8.10
2019-01-18T23:00:00.480Z,8.10
2019-01-18T23:02:55.608Z,8.10
2019-01-18T23:05:50.848Z,8.10
2019-01-18T23:09:11.677Z,8.10
2019-01-18T23:11:57.184Z,8.10
2019-01-18T23:14:48.432Z,8.10
2019-01-18T23:17:39.930Z,8.10
2019-01-18T23:20:49.900Z,8.10
2019-01-18T23:23:33.306Z,8.10
2019-01-18T23:26:31.286Z,8.10
2019-01-18T23:29:08.288Z,8.10
2019-01-18T23:32:03.250Z,8.10
2019-01-18T23:34:48.421Z,8.10
2019-01-18T23:37:34.149Z,8.10
2019-01-18T23:40:56.902Z,8.10
2019-01-18T23:43:40.701Z,8.00
2019-01-18T23:46:44.893Z,7.90
2019-01-18T23:49:30.805Z,7.90
2019-01-18T23:52:29.060Z,7.80
2019-01-18T23:55:20.945Z,7.80
2019-01-18T23:58:15.582Z,7.70
